Time;durP1;ratioP1;P1;durP2;ratioP2;P2;SDS_P1;SDS_P2;PMS_P1;PMS_P2;Temp;Humidity;BMP_temperature;BMP_pressure;BME280_temperature;BME280_humidity;BME280_pressure;Samples;Min_cycle;Max_cycle;Signal;HPM_P1;HPM_P2
2022/05/02 00:00:32;;;;;;;11.60;10.68;;;10.80;99.90;;;;;;5047920;28;20185;-72
2022/05/02 00:02:58;;;;;;;12.10;11.02;;;10.80;99.90;;;;;;5058171;28;20262;-72
2022/05/02 00:05:24;;;;;;;11.77;10.85;;;10.80;99.90;;;;;;5050239;28;20291;-72
2022/05/02 00:07:49;;;;;;;11.30;10.40;;;10.80;99.90;;;;;;5055218;28;20211;-71
2022/05/02 00:10:15;;;;;;;11.57;10.63;;;10.70;99.90;;;;;;5059991;28;20181;-71
2022/05/02 00:12:41;;;;;;;11.93;10.93;;;10.80;99.90;;;;;;5050867;28;20179;-72
2022/05/02 00:15:08;;;;;;;10.88;9.88;;;10.80;99.90;;;;;;5050877;28;20187;-72
2022/05/02 00:18:19;;;;;;;11.93;10.82;;;10.80;99.90;;;;;;5058740;28;20184;-71
2022/05/02 00:20:19;;;;;;;12.60;11.50;;;10.90;99.90;;;;;;5045170;28;20204;-71
2022/05/02 00:22:45;;;;;;;12.13;11.10;;;10.90;99.90;;;;;;5053143;28;20550;-72
2022/05/02 00:25:11;;;;;;;12.60;11.50;;;10.90;99.90;;;;;;5055148;28;20184;-74
2022/05/02 00:27:39;;;;;;;13.23;12.13;;;10.90;99.90;;;;;;5055833;28;20238;-72
2022/05/02 00:30:06;;;;;;;16.20;12.13;;;10.80;99.90;;;;;;5057067;28;20208;-72
2022/05/02 00:32:32;;;;;;;13.02;11.93;;;10.80;99.90;;;;;;5052576;28;20647;-71
2022/05/02 00:34:57;;;;;;;13.77;12.65;;;10.90;99.90;;;;;;5055558;28;20233;-72
2022/05/02 00:37:23;;;;;;;13.95;12.65;;;10.90;99.90;;;;;;5056966;28;20270;-71
2022/05/02 00:39:48;;;;;;;14.20;12.90;;;11.00;99.90;;;;;;5053796;28;20181;-71
2022/05/02 00:42:14;;;;;;;12.27;11.30;;;11.00;99.90;;;;;;5052744;28;20657;-71
2022/05/02 00:44:43;;;;;;;13.90;12.50;;;11.10;99.90;;;;;;5056497;28;20186;-72
2022/05/02 00:47:09;;;;;;;13.73;12.57;;;11.20;99.90;;;;;;5050503;28;20667;-72
2022/05/02 00:49:38;;;;;;;12.95;11.95;;;11.20;99.90;;;;;;5057767;28;20585;-71
2022/05/02 00:52:05;;;;;;;14.10;12.57;;;11.20;99.90;;;;;;5055900;28;20580;-72
2022/05/02 00:54:31;;;;;;;13.13;11.88;;;11.20;99.90;;;;;;5054220;28;20578;-72
2022/05/02 00:56:59;;;;;;;12.48;11.48;;;11.20;99.90;;;;;;5057132;28;20568;-72
2022/05/02 00:59:26;;;;;;;13.38;12.07;;;11.20;99.90;;;;;;5056049;28;20535;-72
2022/05/02 01:01:52;;;;;;;14.43;13.23;;;11.20;99.90;;;;;;5057475;28;20598;-72
2022/05/02 01:04:17;;;;;;;13.15;11.95;;;11.30;99.90;;;;;;5052751;28;20188;-72
2022/05/02 01:09:31;;;;;;;12.63;11.43;;;11.40;99.90;;;;;;5055707;28;20219;-72
2022/05/02 01:11:57;;;;;;;11.65;10.55;;;11.40;99.90;;;;;;5051606;28;20187;-72
2022/05/02 01:14:22;;;;;;;11.60;10.60;;;11.40;99.90;;;;;;5045645;28;20184;-72
2022/05/02 01:16:49;;;;;;;12.15;11.13;;;11.50;99.90;;;;;;5054624;28;20218;-72
2022/05/02 01:19:15;;;;;;;12.73;11.43;;;11.50;99.90;;;;;;5056868;28;20179;-72
2022/05/02 01:21:44;;;;;;;12.07;11.07;;;11.40;99.90;;;;;;5051492;28;20286;-71
2022/05/02 01:24:10;;;;;;;12.45;11.35;;;11.40;99.90;;;;;;5056172;28;20650;-71
2022/05/02 01:26:37;;;;;;;12.05;11.05;;;11.30;99.90;;;;;;5061068;28;20214;-72
2022/05/02 01:29:03;;;;;;;13.13;12.05;;;11.20;99.90;;;;;;5051363;28;20233;-72
2022/05/02 01:31:29;;;;;;;13.30;12.23;;;11.10;99.90;;;;;;5054556;28;20188;-72
2022/05/02 01:33:56;;;;;;;13.80;12.60;;;11.00;99.90;;;;;;5058703;28;20171;-72
2022/05/02 01:36:22;;;;;;;13.07;11.98;;;10.90;99.90;;;;;;5056556;28;20191;-72
2022/05/02 01:38:49;;;;;;;12.75;11.60;;;10.80;99.90;;;;;;5056658;28;20187;-72
2022/05/02 01:41:14;;;;;;;13.10;11.93;;;10.70;99.90;;;;;;5045769;28;20180;-72
2022/05/02 01:43:40;;;;;;;13.25;12.05;;;10.60;99.90;;;;;;5053936;28;20179;-72
2022/05/02 01:46:08;;;;;;;12.93;11.63;;;10.50;99.90;;;;;;5059718;28;20225;-72
2022/05/02 01:48:33;;;;;;;13.07;11.88;;;10.40;99.90;;;;;;5051263;28;20310;-73
2022/05/02 01:51:00;;;;;;;12.68;11.68;;;10.30;99.90;;;;;;5054612;28;20235;-72
2022/05/02 01:53:26;;;;;;;12.20;11.20;;;10.20;99.90;;;;;;5054208;28;20184;-72
2022/05/02 01:55:52;;;;;;;13.50;12.18;;;10.20;99.90;;;;;;5046961;28;20211;-73
2022/05/02 01:58:18;;;;;;;13.40;12.20;;;10.00;99.90;;;;;;5052767;28;20207;-71
2022/05/02 02:00:45;;;;;;;13.60;12.35;;;10.00;99.90;;;;;;5042961;28;20270;-72
2022/05/02 02:03:11;;;;;;;13.68;12.48;;;10.00;99.90;;;;;;5057164;28;20172;-71
2022/05/02 02:05:49;;;;;;;13.25;12.15;;;9.90;99.90;;;;;;5048137;28;20553;-72
2022/05/02 02:08:29;;;;;;;12.93;11.88;;;9.80;99.90;;;;;;5047500;28;20558;-72
2022/05/02 02:10:58;;;;;;;14.63;13.23;;;9.70;99.90;;;;;;5055167;28;20171;-72
2022/05/02 02:13:23;;;;;;;14.43;13.00;;;9.60;99.90;;;;;;5047690;28;20185;-72
2022/05/02 02:15:49;;;;;;;13.63;12.52;;;9.50;99.90;;;;;;5052221;28;20196;-72
2022/05/02 02:18:15;;;;;;;15.63;14.23;;;9.40;99.90;;;;;;5056864;28;20180;-72
2022/05/02 02:20:46;;;;;;;14.85;13.63;;;9.30;99.90;;;;;;5052606;28;20677;-72
2022/05/02 02:23:13;;;;;;;14.57;13.25;;;9.30;99.90;;;;;;5053049;28;20480;-72
2022/05/02 02:25:40;;;;;;;13.48;12.27;;;9.20;99.90;;;;;;5057363;28;20203;-72
2022/05/02 02:28:06;;;;;;;13.43;12.23;;;9.20;99.90;;;;;;5037184;28;20204;-71
2022/05/02 02:30:33;;;;;;;13.32;12.32;;;9.20;99.90;;;;;;5057702;28;20188;-72
2022/05/02 02:32:59;;;;;;;15.13;12.10;;;9.20;99.90;;;;;;5056529;28;20547;-71
2022/05/02 02:35:25;;;;;;;14.38;13.05;;;9.10;99.90;;;;;;5054999;28;20199;-72
2022/05/02 02:37:51;;;;;;;14.23;12.93;;;9.10;99.90;;;;;;5057779;28;20187;-72
2022/05/02 02:40:18;;;;;;;12.93;11.82;;;9.10;99.90;;;;;;5056940;28;20183;-72
2022/05/02 02:42:44;;;;;;;13.13;12.13;;;9.00;99.90;;;;;;5055470;28;20670;-72
2022/05/02 02:45:10;;;;;;;13.30;12.05;;;9.00;99.90;;;;;;5056535;28;20188;-72
2022/05/02 02:47:36;;;;;;;15.38;12.45;;;8.90;99.90;;;;;;5058926;28;20220;-71
2022/05/02 02:50:03;;;;;;;13.23;11.88;;;8.90;99.90;;;;;;5060530;28;20262;-71
2022/05/02 02:52:29;;;;;;;15.73;14.32;;;8.80;99.90;;;;;;5053094;28;20242;-72
2022/05/02 02:54:54;;;;;;;16.08;14.57;;;8.80;99.90;;;;;;5052624;28;20577;-72
2022/05/02 02:57:20;;;;;;;15.27;13.98;;;8.80;99.90;;;;;;5057046;28;20262;-72
2022/05/02 02:59:45;;;;;;;16.70;15.10;;;8.90;99.90;;;;;;5063332;28;20176;-73
2022/05/02 03:02:11;;;;;;;15.40;13.90;;;8.90;99.90;;;;;;5054606;28;20239;-72
2022/05/02 03:07:26;;;;;;;16.00;14.65;;;9.00;99.90;;;;;;5047237;28;20560;-71
2022/05/02 03:09:52;;;;;;;16.88;15.32;;;8.90;99.90;;;;;;5052125;28;20183;-72
2022/05/02 03:12:19;;;;;;;15.68;14.15;;;8.90;99.90;;;;;;5048809;28;20227;-75
2022/05/02 03:14:45;;;;;;;16.80;15.13;;;8.90;99.90;;;;;;5047127;28;20187;-72
2022/05/02 03:17:11;;;;;;;17.55;15.85;;;9.00;99.90;;;;;;5051322;28;20204;-72
2022/05/02 03:19:37;;;;;;;17.92;16.15;;;9.00;99.90;;;;;;5053673;28;20187;-73
2022/05/02 03:22:03;;;;;;;18.45;16.65;;;9.00;99.90;;;;;;5055993;28;20180;-71
2022/05/02 03:24:29;;;;;;;18.58;16.67;;;9.10;99.90;;;;;;5050668;28;20599;-71
2022/05/02 03:26:54;;;;;;;17.15;15.45;;;9.10;99.90;;;;;;5050173;28;20204;-71
2022/05/02 03:29:20;;;;;;;19.88;17.88;;;9.10;99.90;;;;;;5050161;28;20215;-71
2022/05/02 03:31:46;;;;;;;18.48;16.58;;;9.10;99.90;;;;;;5042240;28;20204;-71
2022/05/02 03:34:11;;;;;;;19.30;17.40;;;9.30;99.90;;;;;;5045270;28;20221;-71
2022/05/02 03:36:37;;;;;;;17.77;16.08;;;9.30;99.90;;;;;;5045773;28;20207;-71
2022/05/02 03:39:03;;;;;;;20.35;16.98;;;9.20;99.90;;;;;;5044811;28;20184;-71
2022/05/02 03:41:29;;;;;;;19.45;17.27;;;9.30;99.90;;;;;;5043692;28;20177;-71
2022/05/02 03:43:55;;;;;;;19.00;17.27;;;9.30;99.90;;;;;;5050342;28;20222;-71
2022/05/02 03:46:21;;;;;;;16.50;15.00;;;9.30;99.90;;;;;;5055792;28;20208;-71
2022/05/02 03:48:46;;;;;;;17.27;15.60;;;9.40;99.90;;;;;;5054735;28;20204;-72
2022/05/02 03:51:12;;;;;;;17.77;16.15;;;9.50;99.90;;;;;;5048672;28;20654;-71
2022/05/02 03:53:38;;;;;;;16.83;15.35;;;9.50;99.90;;;;;;5029057;28;20180;-71
2022/05/02 03:56:04;;;;;;;18.38;15.25;;;9.50;99.90;;;;;;5045975;28;20284;-71
2022/05/02 03:58:30;;;;;;;17.08;15.43;;;9.50;99.90;;;;;;5052376;28;20195;-71
2022/05/02 04:00:55;;;;;;;15.50;14.13;;;9.40;99.90;;;;;;5046541;28;20194;-72
2022/05/02 04:03:21;;;;;;;17.23;15.23;;;9.40;99.90;;;;;;5050284;28;20191;-71
2022/05/02 04:05:47;;;;;;;16.67;15.15;;;9.40;99.90;;;;;;5050555;28;20200;-71
2022/05/02 04:08:12;;;;;;;16.35;14.85;;;9.40;99.90;;;;;;5049914;28;20210;-71
2022/05/02 04:10:38;;;;;;;16.75;15.25;;;9.30;99.90;;;;;;5043658;28;20172;-71
2022/05/02 04:13:04;;;;;;;15.70;14.20;;;9.20;99.90;;;;;;5045053;28;20188;-71
2022/05/02 04:15:30;;;;;;;16.08;14.57;;;9.30;99.90;;;;;;5050726;28;20196;-71
2022/05/02 04:17:56;;;;;;;16.30;14.70;;;9.30;99.90;;;;;;5046980;28;20187;-71
2022/05/02 04:20:22;;;;;;;15.90;14.45;;;9.30;99.90;;;;;;5046836;28;20275;-71
2022/05/02 04:22:47;;;;;;;17.38;15.75;;;9.40;99.90;;;;;;5046424;28;20254;-71
2022/05/02 04:25:13;;;;;;;16.25;14.57;;;9.50;99.90;;;;;;5048940;28;20183;-70
2022/05/02 04:27:39;;;;;;;16.13;14.63;;;9.50;99.90;;;;;;5048695;28;20575;-71
2022/05/02 04:30:06;;;;;;;16.10;14.65;;;9.40;99.90;;;;;;5025932;28;20250;-70
2022/05/02 04:32:31;;;;;;;15.15;13.80;;;9.40;99.90;;;;;;5046194;28;20651;-72
2022/05/02 04:34:58;;;;;;;16.83;15.32;;;9.50;99.90;;;;;;5044460;28;20211;-72
2022/05/02 04:37:24;;;;;;;18.67;16.95;;;9.50;99.90;;;;;;5045058;28;20225;-72
2022/05/02 04:39:51;;;;;;;15.35;14.02;;;9.50;99.90;;;;;;5059375;28;20182;-72
2022/05/02 04:42:16;;;;;;;13.25;12.02;;;9.60;99.90;;;;;;5046853;28;20181;-72
2022/05/02 04:44:42;;;;;;;13.88;12.65;;;9.70;99.90;;;;;;5053221;28;20175;-72
2022/05/02 04:47:07;;;;;;;12.82;11.65;;;9.70;99.90;;;;;;5053408;28;20325;-72
2022/05/02 04:49:33;;;;;;;13.35;12.15;;;9.70;99.90;;;;;;5047327;28;20199;-74
2022/05/02 04:51:59;;;;;;;12.77;11.60;;;9.80;99.90;;;;;;5045411;28;20176;-75
2022/05/02 04:54:24;;;;;;;13.48;12.38;;;9.80;99.90;;;;;;5046553;28;20179;-75
2022/05/02 04:56:50;;;;;;;12.38;11.38;;;9.80;99.90;;;;;;5046444;28;20254;-72
2022/05/02 04:59:16;;;;;;;11.18;10.27;;;9.90;99.90;;;;;;5058085;28;20236;-75
2022/05/02 05:01:42;;;;;;;10.90;10.07;;;9.90;99.90;;;;;;5055604;28;20228;-74
2022/05/02 05:04:08;;;;;;;10.55;9.65;;;10.00;99.90;;;;;;5031118;28;20184;-73
2022/05/02 05:06:34;;;;;;;10.35;9.55;;;10.10;99.90;;;;;;5051348;28;20206;-73
2022/05/02 05:08:59;;;;;;;9.77;8.98;;;10.10;99.90;;;;;;5064534;28;20199;-73
2022/05/02 05:11:52;;;;;;;10.32;9.35;;;10.10;99.90;;;;;;5055904;28;20179;-72
2022/05/02 05:17:55;;;;;;;10.80;9.90;;;9.90;99.90;;;;;;5051843;28;20386;-74
2022/05/02 05:20:54;;;;;;;10.43;9.60;;;9.70;99.90;;;;;;5050160;28;20528;-72
2022/05/02 05:23:35;;;;;;;11.45;10.32;;;9.70;99.90;;;;;;5048936;28;20191;-72
2022/05/02 05:26:13;;;;;;;10.43;9.52;;;9.60;99.90;;;;;;5034038;28;20570;-72
2022/05/02 05:28:59;;;;;;;11.18;10.23;;;9.80;99.90;;;;;;5043423;28;20708;-72
2022/05/02 05:31:31;;;;;;;10.45;9.65;;;10.00;99.90;;;;;;5052128;28;20203;-72
2022/05/02 05:34:05;;;;;;;10.55;9.75;;;10.30;99.90;;;;;;5049478;28;20268;-71
2022/05/02 05:36:57;;;;;;;10.95;10.05;;;10.40;99.90;;;;;;5053027;28;20214;-72
2022/05/02 05:39:31;;;;;;;9.82;8.90;;;10.50;99.90;;;;;;5059453;28;20231;-71
2022/05/02 05:42:21;;;;;;;11.00;10.00;;;10.70;99.90;;;;;;5049595;28;20206;-71
2022/05/02 05:45:04;;;;;;;10.32;9.43;;;10.90;99.90;;;;;;5047319;28;20199;-70
2022/05/02 05:47:29;;;;;;;10.43;9.63;;;11.10;99.90;;;;;;5047133;28;20184;-75
2022/05/02 05:50:05;;;;;;;10.73;9.73;;;11.20;99.90;;;;;;5057877;28;20188;-74
2022/05/02 05:52:50;;;;;;;10.75;9.77;;;11.30;99.90;;;;;;5055091;28;20176;-74
2022/05/02 05:55:35;;;;;;;10.45;9.55;;;11.50;99.90;;;;;;5050205;28;20172;-74
2022/05/02 05:58:14;;;;;;;11.63;10.15;;;11.60;99.90;;;;;;5059335;28;20245;-74
2022/05/02 06:00:44;;;;;;;11.05;9.93;;;11.70;99.90;;;;;;5054414;28;20175;-74
2022/05/02 06:03:15;;;;;;;13.02;10.75;;;11.80;99.90;;;;;;5060434;28;20685;-74
2022/05/02 06:05:43;;;;;;;11.98;10.75;;;11.90;99.90;;;;;;5052446;28;20571;-75
2022/05/02 06:08:29;;;;;;;11.40;10.30;;;11.90;99.90;;;;;;5060015;28;20639;-73
2022/05/02 06:11:00;;;;;;;10.57;9.25;;;12.00;99.90;;;;;;5053819;28;20180;-73
2022/05/02 06:13:31;;;;;;;12.98;9.50;;;12.00;99.90;;;;;;5050931;28;20173;-73
2022/05/02 06:18:42;;;;;;;11.30;10.40;;;12.10;99.90;;;;;;5064558;28;20636;-72
2022/05/02 06:21:09;;;;;;;9.80;9.02;;;12.00;99.90;;;;;;5058771;28;20188;-76
2022/05/02 06:23:52;;;;;;;10.27;9.38;;;12.10;99.90;;;;;;5048383;28;20675;-72
2022/05/02 06:26:22;;;;;;;11.20;10.30;;;12.30;99.90;;;;;;5058228;28;20237;-72
2022/05/02 06:28:50;;;;;;;11.20;10.20;;;12.30;99.90;;;;;;5059407;28;20207;-71
2022/05/02 06:31:26;;;;;;;11.77;10.70;;;12.40;99.90;;;;;;5059424;28;20656;-71
2022/05/02 06:33:52;;;;;;;11.68;10.68;;;12.50;99.90;;;;;;5048953;28;20186;-72
2022/05/02 06:36:39;;;;;;;11.35;10.32;;;12.60;99.90;;;;;;5059027;28;20222;-71
2022/05/02 06:39:14;;;;;;;11.13;10.07;;;12.70;99.90;;;;;;5059505;28;20192;-72
2022/05/02 06:42:07;;;;;;;11.18;10.23;;;12.70;99.90;;;;;;5051685;28;20191;-71
2022/05/02 06:44:57;;;;;;;10.80;9.90;;;12.80;99.90;;;;;;5045357;28;20187;-71
2022/05/02 06:47:42;;;;;;;11.00;9.98;;;13.00;99.90;;;;;;5048395;28;20184;-72
2022/05/02 06:50:07;;;;;;;10.93;9.95;;;13.30;99.90;;;;;;5049287;28;20255;-72
2022/05/02 06:52:40;;;;;;;10.75;9.85;;;13.40;99.90;;;;;;5053822;28;20207;-75
2022/05/02 06:55:55;;;;;;;10.52;9.73;;;13.30;99.90;;;;;;5049327;28;20181;-72
2022/05/02 06:58:36;;;;;;;11.65;10.65;;;13.30;99.90;;;;;;5026492;28;20274;-72
2022/05/02 07:01:20;;;;;;;11.10;10.20;;;13.40;99.90;;;;;;5053161;28;20218;-72
2022/05/02 07:04:05;;;;;;;11.98;11.02;;;13.50;99.90;;;;;;5043016;28;20558;-73
2022/05/02 07:07:01;;;;;;;10.90;10.00;;;13.70;99.90;;;;;;5047980;28;20275;-72
2022/05/02 07:09:36;;;;;;;11.65;10.63;;;13.90;99.90;;;;;;5055472;28;20596;-73
2022/05/02 07:12:11;;;;;;;11.88;10.85;;;14.00;99.90;;;;;;5046837;28;20195;-73
2022/05/02 07:15:24;;;;;;;11.35;10.35;;;14.10;99.90;;;;;;5058482;28;20314;-71
2022/05/02 07:18:06;;;;;;;10.10;9.30;;;14.10;99.90;;;;;;5032027;28;20203;-72
2022/05/02 07:20:41;;;;;;;12.10;11.05;;;14.30;99.90;;;;;;5056066;28;20560;-72
2022/05/02 07:23:28;;;;;;;11.38;10.38;;;14.30;99.90;;;;;;5055397;28;20278;-72
2022/05/02 07:26:00;;;;;;;11.35;10.32;;;14.30;99.90;;;;;;5055767;28;20191;-72
2022/05/02 07:28:28;;;;;;;11.32;10.32;;;14.10;99.90;;;;;;5049352;28;20632;-73
2022/05/02 07:30:58;;;;;;;11.88;10.75;;;14.10;99.90;;;;;;5054671;28;20198;-73
2022/05/02 07:33:34;;;;;;;10.93;9.93;;;14.20;99.90;;;;;;5042427;28;20179;-72
2022/05/02 07:36:03;;;;;;;10.48;9.68;;;14.30;99.90;;;;;;5055737;28;20195;-73
2022/05/02 07:38:34;;;;;;;10.55;9.65;;;14.50;99.90;;;;;;5047642;28;20211;-75
2022/05/02 07:41:23;;;;;;;9.95;9.15;;;14.70;99.90;;;;;;5053469;28;20298;-72
2022/05/02 07:44:00;;;;;;;10.15;9.35;;;14.80;99.90;;;;;;5053787;28;20180;-73
2022/05/02 07:46:27;;;;;;;9.98;9.07;;;15.00;99.90;;;;;;5045591;28;20645;-72
2022/05/02 07:48:56;;;;;;;10.48;9.57;;;15.10;99.90;;;;;;5063634;28;20195;-72
2022/05/02 07:51:23;;;;;;;8.90;8.10;;;15.20;99.90;;;;;;5056452;28;20190;-74
2022/05/02 07:53:50;;;;;;;10.65;9.85;;;15.40;99.90;;;;;;5053849;28;20184;-74
2022/05/02 07:56:20;;;;;;;9.52;8.73;;;15.60;99.90;;;;;;5050460;28;20211;-72
2022/05/02 07:58:47;;;;;;;8.38;7.78;;;15.80;99.90;;;;;;5062341;28;20570;-72
2022/05/02 08:01:18;;;;;;;8.45;7.82;;;16.00;99.90;;;;;;5055867;28;20666;-72
2022/05/02 08:03:43;;;;;;;9.85;8.95;;;16.10;99.90;;;;;;5047546;28;20216;-77
2022/05/02 08:06:29;;;;;;;8.48;7.57;;;16.10;99.90;;;;;;5050477;28;20262;-72
2022/05/02 08:09:05;;;;;;;8.93;8.23;;;16.00;99.90;;;;;;5050040;28;20208;-74
2022/05/02 08:11:39;;;;;;;8.45;7.55;;;15.90;99.90;;;;;;5051618;28;20183;-72
2022/05/02 08:14:16;;;;;;;8.75;8.00;;;15.90;99.90;;;;;;5054502;28;20550;-72
2022/05/02 08:16:57;;;;;;;7.22;6.70;;;15.90;99.90;;;;;;5051634;28;20191;-73
2022/05/02 08:20:01;;;;;;;7.43;6.70;;;15.90;99.90;;;;;;5051366;28;20246;-73
2022/05/02 08:28:49;;;;;;;7.80;7.07;;;16.70;99.90;;;;;;5051558;28;20218;-72
2022/05/02 08:31:31;;;;;;;7.75;7.05;;;17.00;99.90;;;;;;5055520;28;20190;-72
2022/05/02 08:34:22;;;;;;;7.85;7.07;;;17.40;99.90;;;;;;5055143;28;20190;-72
2022/05/02 08:37:05;;;;;;;7.75;7.05;;;17.60;99.90;;;;;;5048885;28;20798;-74
2022/05/02 08:39:53;;;;;;;8.07;7.38;;;17.80;99.90;;;;;;5047175;28;20250;-73
2022/05/02 08:42:41;;;;;;;8.52;7.60;;;18.00;99.90;;;;;;5051067;28;20210;-71
2022/05/02 08:45:35;;;;;;;7.72;7.20;;;18.30;99.90;;;;;;5054647;28;20195;-71
2022/05/02 08:48:18;;;;;;;6.82;6.32;;;18.50;99.90;;;;;;5043081;28;20197;-72
2022/05/02 08:51:15;;;;;;;6.70;6.18;;;18.60;99.90;;;;;;5044257;28;20180;-73
2022/05/02 08:53:44;;;;;;;7.55;6.95;;;18.40;99.90;;;;;;5046096;28;20656;-73
2022/05/02 08:56:24;;;;;;;6.90;6.30;;;18.40;99.90;;;;;;5047535;28;20192;-73
2022/05/02 08:59:20;;;;;;;7.40;6.60;;;18.60;99.90;;;;;;5045791;28;20192;-73
2022/05/02 09:02:10;;;;;;;7.07;6.38;;;19.00;99.90;;;;;;5042206;28;20184;-73
2022/05/02 09:04:51;;;;;;;7.43;6.88;;;19.30;99.90;;;;;;5045053;28;20656;-73
2022/05/02 09:07:20;;;;;;;7.25;6.47;;;19.30;99.90;;;;;;5043899;28;20218;-72
2022/05/02 09:10:03;;;;;;;7.25;6.55;;;19.50;99.90;;;;;;5052424;28;20231;-72
2022/05/02 09:12:55;;;;;;;6.97;6.47;;;19.90;99.90;;;;;;5054019;28;20180;-77
2022/05/02 09:15:40;;;;;;;7.25;6.63;;;20.50;99.90;;;;;;5053786;28;20203;-73
2022/05/02 09:18:05;;;;;;;7.15;6.50;;;21.30;99.90;;;;;;5051048;28;20233;-72
2022/05/02 09:20:39;;;;;;;7.30;6.70;;;22.20;99.90;;;;;;5051825;28;20265;-77
2022/05/02 09:23:26;;;;;;;7.00;6.22;;;23.30;99.90;;;;;;5054070;28;20286;-73
2022/05/02 09:25:55;;;;;;;5.40;5.00;;;24.20;99.30;;;;;;5050202;28;20195;-72
2022/05/02 09:28:23;;;;;;;6.15;5.68;;;25.10;95.70;;;;;;5049325;28;20694;-72
2022/05/02 09:30:54;;;;;;;6.20;5.40;;;26.10;91.70;;;;;;5050527;28;20689;-72
2022/05/02 09:33:41;;;;;;;4.68;4.28;;;27.20;87.10;;;;;;5051308;28;20254;-72
2022/05/02 09:36:12;;;;;;;4.60;4.20;;;28.40;76.20;;;;;;5053998;28;20237;-76
2022/05/02 09:38:48;;;;;;;4.18;3.50;;;29.40;69.10;;;;;;5053830;28;20218;-73
2022/05/02 09:41:51;;;;;;;3.22;2.92;;;29.60;65.90;;;;;;5044202;28;20180;-73
2022/05/02 09:50:34;;;;;;;4.50;4.07;;;29.90;60.40;;;;;;5051260;28;20237;-73
2022/05/02 09:53:27;;;;;;;7.15;4.53;;;29.90;59.10;;;;;;5046809;28;20279;-74
2022/05/02 09:58:54;;;;;;;3.47;3.17;;;30.30;59.50;;;;;;5043117;28;20705;-76
2022/05/02 10:01:27;;;;;;;3.38;3.17;;;31.20;55.60;;;;;;5064177;28;20184;-76
2022/05/02 10:03:59;;;;;;;3.70;3.50;;;32.40;55.40;;;;;;5058591;28;20270;-76
2022/05/02 10:06:47;;;;;;;3.40;3.28;;;33.20;53.90;;;;;;5057075;28;20210;-70
2022/05/02 10:09:15;;;;;;;3.78;3.47;;;34.10;50.00;;;;;;5055662;28;20217;-72
2022/05/02 10:12:09;;;;;;;4.40;4.10;;;35.10;48.70;;;;;;5059615;28;20177;-70
2022/05/02 10:14:47;;;;;;;4.00;3.80;;;34.60;47.00;;;;;;5060616;28;20283;-70
2022/05/02 10:17:17;;;;;;;3.72;3.53;;;35.30;45.00;;;;;;5050056;28;20587;-70
2022/05/02 10:20:01;;;;;;;3.90;3.70;;;35.30;46.20;;;;;;5057499;28;20527;-72
2022/05/02 10:22:48;;;;;;;2.88;2.78;;;35.50;46.20;;;;;;5054193;28;20271;-70
2022/05/02 10:25:21;;;;;;;3.65;3.45;;;36.10;42.20;;;;;;5053419;28;20187;-70
2022/05/02 10:28:27;;;;;;;3.10;3.00;;;35.30;41.70;;;;;;5051965;28;20213;-70
2022/05/02 10:31:10;;;;;;;3.92;3.72;;;34.90;43.30;;;;;;5054727;28;20217;-70
2022/05/02 10:33:44;;;;;;;4.00;3.67;;;34.00;43.60;;;;;;5051131;28;20274;-71
2022/05/02 10:36:10;;;;;;;3.80;3.40;;;34.90;44.20;;;;;;5054869;28;20226;-70
2022/05/02 10:38:50;;;;;;;3.65;3.35;;;35.70;43.60;;;;;;5060907;28;20188;-70
2022/05/02 10:41:27;;;;;;;2.90;2.78;;;36.00;41.60;;;;;;5058186;28;20606;-71
2022/05/02 10:44:04;;;;;;;3.20;3.00;;;36.40;44.50;;;;;;5049441;28;20210;-70
2022/05/02 10:46:31;;;;;;;3.15;2.95;;;36.90;39.80;;;;;;5053321;28;20546;-71
2022/05/02 10:49:02;;;;;;;2.50;2.40;;;36.50;40.80;;;;;;5059381;28;20198;-70
2022/05/02 10:51:49;;;;;;;2.88;2.70;;;36.60;40.50;;;;;;5057960;28;20555;-70
2022/05/02 10:54:32;;;;;;;2.70;2.60;;;36.50;40.10;;;;;;5050166;28;20261;-70
2022/05/02 10:57:13;;;;;;;3.63;3.30;;;37.00;39.00;;;;;;5053267;28;20233;-70
2022/05/02 10:59:44;;;;;;;3.60;3.33;;;36.40;39.50;;;;;;5061474;28;20193;-70
2022/05/02 11:02:43;;;;;;;3.45;3.15;;;35.50;40.10;;;;;;5057300;28;20270;-71
2022/05/02 11:05:16;;;;;;;2.92;2.72;;;35.90;41.30;;;;;;5047772;28;20246;-70
2022/05/02 11:08:30;;;;;;;3.33;3.13;;;36.20;40.50;;;;;;5060418;28;20175;-71
2022/05/02 11:11:03;;;;;;;3.33;3.13;;;36.40;40.60;;;;;;5041278;28;20195;-70
2022/05/02 11:13:51;;;;;;;3.28;3.08;;;37.10;39.60;;;;;;5050188;28;20228;-70
2022/05/02 11:16:38;;;;;;;3.08;2.90;;;37.10;38.40;;;;;;5054773;28;20211;-71
2022/05/02 11:22:39;;;;;;;3.40;3.10;;;37.40;39.70;;;;;;5058559;28;20229;-71
2022/05/02 11:25:17;;;;;;;4.07;3.70;;;38.20;39.20;;;;;;5052664;28;20654;-71
2022/05/02 11:27:52;;;;;;;3.55;3.25;;;38.10;38.10;;;;;;5053648;28;20191;-74
2022/05/02 11:30:25;;;;;;;4.50;4.10;;;38.40;38.30;;;;;;5054137;28;20228;-73
2022/05/02 11:33:04;;;;;;;4.45;3.35;;;38.20;37.70;;;;;;5046994;28;20586;-72
2022/05/02 11:35:33;;;;;;;3.53;3.30;;;36.30;39.30;;;;;;5055110;28;20231;-74
2022/05/02 11:38:04;;;;;;;4.18;3.88;;;34.60;41.50;;;;;;5057715;28;20182;-73
2022/05/02 11:40:35;;;;;;;3.30;3.15;;;34.90;41.50;;;;;;5050380;28;20212;-73
2022/05/02 11:43:03;;;;;;;4.30;4.00;;;36.30;41.40;;;;;;5052210;28;20375;-76
2022/05/02 11:45:43;;;;;;;3.92;3.65;;;36.90;38.60;;;;;;5058449;28;20693;-74
2022/05/02 11:48:21;;;;;;;3.53;3.25;;;36.90;39.10;;;;;;5062067;28;20198;-73
2022/05/02 11:50:48;;;;;;;4.53;4.13;;;37.20;39.70;;;;;;5050875;28;20254;-74
2022/05/02 11:53:16;;;;;;;3.38;3.17;;;36.50;39.00;;;;;;5058627;28;20249;-72
2022/05/02 11:55:46;;;;;;;3.55;3.35;;;34.80;41.40;;;;;;5048381;28;20213;-73
2022/05/02 11:58:24;;;;;;;3.78;3.50;;;33.10;42.20;;;;;;5053882;28;20248;-72
2022/05/02 12:00:57;;;;;;;3.55;3.35;;;33.20;43.70;;;;;;5043427;28;20183;-73
2022/05/02 12:03:25;;;;;;;4.60;4.28;;;33.30;42.90;;;;;;5059080;28;20183;-73
2022/05/02 12:06:03;;;;;;;4.20;3.67;;;34.20;43.40;;;;;;5052429;28;20278;-73
2022/05/02 12:08:37;;;;;;;3.53;3.22;;;35.10;42.10;;;;;;5041727;28;20203;-72
2022/05/02 12:11:08;;;;;;;3.05;2.90;;;35.80;39.90;;;;;;5057446;28;20261;-71
2022/05/02 12:13:36;;;;;;;3.08;2.80;;;36.00;40.00;;;;;;5048355;28;20540;-71
2022/05/02 12:16:13;;;;;;;2.92;2.83;;;35.80;38.30;;;;;;5048082;28;20298;-70
2022/05/02 12:18:53;;;;;;;4.00;3.80;;;35.40;38.00;;;;;;5048433;28;20189;-72
2022/05/02 12:21:31;;;;;;;4.00;3.78;;;34.80;38.60;;;;;;5043969;28;20184;-67
2022/05/02 12:23:58;;;;;;;2.95;2.72;;;34.10;39.40;;;;;;5043811;28;20179;-68
2022/05/02 12:26:25;;;;;;;3.72;3.33;;;33.30;41.40;;;;;;5037381;28;20826;-68
2022/05/02 12:28:58;;;;;;;3.80;3.50;;;33.90;41.10;;;;;;5038842;28;20215;-72
2022/05/02 12:31:26;;;;;;;4.15;3.90;;;34.60;41.20;;;;;;5041448;28;20270;-71
2022/05/02 12:34:04;;;;;;;3.70;3.40;;;35.00;40.90;;;;;;5037403;28;20180;-68
2022/05/02 12:36:46;;;;;;;3.38;3.28;;;35.70;40.00;;;;;;5047811;28;20202;-69
2022/05/02 12:39:17;;;;;;;3.30;3.08;;;36.20;39.10;;;;;;5047752;28;20187;-70
2022/05/02 12:41:49;;;;;;;3.67;3.47;;;35.70;39.00;;;;;;5047513;28;20190;-71
2022/05/02 12:44:16;;;;;;;4.88;3.85;;;34.50;39.40;;;;;;5044790;28;20766;-70
2022/05/02 12:46:47;;;;;;;3.35;3.15;;;33.10;41.10;;;;;;5046655;28;20199;-71
2022/05/02 12:49:32;;;;;;;3.33;3.13;;;33.00;41.90;;;;;;5040813;28;20210;-70
2022/05/02 12:51:58;;;;;;;3.55;3.35;;;34.00;41.60;;;;;;5050020;28;20171;-71
2022/05/02 12:54:26;;;;;;;3.58;3.22;;;34.90;41.10;;;;;;5048805;28;20188;-71
2022/05/02 13:02:40;;;;;;;3.08;2.88;;;38.50;38.00;;;;;;5051382;28;20206;-71
2022/05/02 13:05:16;;;;;;;4.22;2.92;;;41.70;33.90;;;;;;5043109;28;20242;-70
2022/05/02 13:07:47;;;;;;;3.38;3.17;;;43.60;33.00;;;;;;5050763;28;20187;-71
2022/05/02 13:10:24;;;;;;;2.72;2.60;;;45.60;31.90;;;;;;5041580;28;20178;-71
2022/05/02 13:13:05;;;;;;;2.10;2.00;;;46.60;30.80;;;;;;5039326;28;20269;-71
2022/05/02 13:15:50;;;;;;;1.45;1.42;;;44.50;30.20;;;;;;5050535;28;20617;-71
2022/05/02 13:18:21;;;;;;;1.77;1.67;;;41.10;32.70;;;;;;5042824;28;20182;-70
2022/05/02 13:21:05;;;;;;;1.92;1.83;;;38.60;34.00;;;;;;5043739;28;20206;-72
2022/05/02 13:23:49;;;;;;;1.67;1.60;;;35.90;36.20;;;;;;5044713;28;20225;-72
2022/05/02 13:26:22;;;;;;;1.80;1.70;;;33.70;38.70;;;;;;5053569;28;20206;-70
2022/05/02 13:29:15;;;;;;;1.73;1.63;;;34.80;39.10;;;;;;5051611;28;20282;-70
2022/05/02 13:31:56;;;;;;;1.70;1.60;;;36.10;37.00;;;;;;5053059;28;20210;-71
2022/05/02 13:34:31;;;;;;;1.63;1.52;;;37.00;37.00;;;;;;5026812;28;20544;-72
2022/05/02 13:37:15;;;;;;;2.55;1.83;;;37.90;36.40;;;;;;5048434;28;20685;-75
2022/05/02 13:39:56;;;;;;;1.80;1.70;;;37.90;35.60;;;;;;5051208;28;20645;-71
2022/05/02 13:42:41;;;;;;;3.22;1.70;;;36.40;37.10;;;;;;5051590;28;20179;-72
2022/05/02 13:45:44;;;;;;;1.70;1.60;;;35.50;38.30;;;;;;5045782;28;20179;-76